createdAt,value
2017-04-04T00:00:02.539Z,20.53
2017-04-04T00:00:30.920Z,20.58
2017-04-04T00:00:59.422Z,20.53
2017-04-04T00:02:10.954Z,20.58
2017-04-04T00:02:39.362Z,20.56
2017-04-04T00:03:07.730Z,20.55
2017-04-04T00:03:35.955Z,20.48
2017-04-04T00:04:04.486Z,20.53
2017-04-04T00:04:32.760Z,20.5
2017-04-04T00:05:01.311Z,20.5
2017-04-04T00:05:29.856Z,20.5
2017-04-04T00:05:58.299Z,20.53
2017-04-04T00:06:26.759Z,20.52
2017-04-04T00:06:55.600Z,20.53
2017-04-04T00:08:07.020Z,20.5
2017-04-04T00:08:35.336Z,20.56
2017-04-04T00:09:03.686Z,20.53
2017-04-04T00:09:32.010Z,20.5
2017-04-04T00:10:00.504Z,20.49
2017-04-04T00:10:28.875Z,20.53
2017-04-04T00:10:57.254Z,20.49
2017-04-04T00:11:25.565Z,20.5
2017-04-04T00:11:53.987Z,20.5
2017-04-04T00:12:22.460Z,20.48
2017-04-04T00:12:50.984Z,20.52
2017-04-04T00:14:02.482Z,20.49
2017-04-04T00:14:30.910Z,20.49
2017-04-04T00:14:59.316Z,20.49
2017-04-04T00:15:27.652Z,20.49
2017-04-04T00:15:56.141Z,20.49
2017-04-04T00:16:24.584Z,20.5
2017-04-04T00:16:53.069Z,20.53
2017-04-04T00:17:21.593Z,20.5
2017-04-04T00:17:49.992Z,20.48
2017-04-04T00:18:18.443Z,20.49
2017-04-04T00:18:46.804Z,20.52
2017-04-04T00:19:58.443Z,20.53
2017-04-04T00:20:26.868Z,20.52
2017-04-04T00:20:55.264Z,20.48
2017-04-04T00:21:23.581Z,20.48
2017-04-04T00:21:51.971Z,20.53
2017-04-04T00:22:20.432Z,20.49
2017-04-04T00:22:48.963Z,20.52
2017-04-04T00:23:17.419Z,20.52
2017-04-04T00:23:45.886Z,20.52
2017-04-04T00:24:14.293Z,20.53
2017-04-04T00:24:42.767Z,20.5
2017-04-04T00:25:54.297Z,20.6
2017-04-04T00:26:22.822Z,20.52
2017-04-04T00:26:51.202Z,20.5
2017-04-04T00:27:19.522Z,20.53
2017-04-04T00:27:48.022Z,20.58
2017-04-04T00:28:16.605Z,20.6
2017-04-04T00:28:45.183Z,20.63
2017-04-04T00:29:13.567Z,20.56
2017-04-04T00:29:41.995Z,20.48
2017-04-04T00:30:10.436Z,20.58
2017-04-04T00:30:38.879Z,20.56
2017-04-04T00:31:50.271Z,20.5
2017-04-04T00:32:18.679Z,20.56
2017-04-04T00:32:47.160Z,20.53
2017-04-04T00:33:15.496Z,20.6
2017-04-04T00:33:43.886Z,20.52
2017-04-04T00:34:12.318Z,20.58
2017-04-04T00:34:40.772Z,20.6
2017-04-04T00:35:09.345Z,20.64
2017-04-04T00:35:37.803Z,20.64
2017-04-04T00:36:06.189Z,20.6
2017-04-04T00:36:34.523Z,20.61
2017-04-04T00:37:45.936Z,20.55
2017-04-04T00:38:14.260Z,20.61
2017-04-04T00:38:42.530Z,20.5
2017-04-04T00:39:10.784Z,20.58
2017-04-04T00:39:39.244Z,20.53
2017-04-04T00:40:07.711Z,20.58
2017-04-04T00:40:36.187Z,20.56
2017-04-04T00:41:04.780Z,20.5
2017-04-04T00:41:33.643Z,20.58
2017-04-04T00:42:02.044Z,20.58
2017-04-04T00:42:30.619Z,20.53
2017-04-04T00:43:42.059Z,20.61
2017-04-04T00:44:10.678Z,20.63
2017-04-04T00:44:39.088Z,20.6
2017-04-04T00:45:07.383Z,20.6
2017-04-04T00:45:35.901Z,20.5
2017-04-04T00:46:04.486Z,20.65
2017-04-04T00:46:33.031Z,20.63
2017-04-04T00:47:01.600Z,20.64
2017-04-04T00:47:30.083Z,20.61
2017-04-04T00:47:58.569Z,20.58
2017-04-04T00:48:27.220Z,20.64
2017-04-04T00:49:38.633Z,20.63
2017-04-04T00:50:07.079Z,20.52
2017-04-04T00:50:35.480Z,20.49
2017-04-04T00:51:03.838Z,20.6
2017-04-04T00:51:32.372Z,20.56
2017-04-04T00:52:00.848Z,20.6
2017-04-04T00:52:29.341Z,20.53
2017-04-04T00:52:57.888Z,20.7
2017-04-04T00:53:26.159Z,20.63
2017-04-04T00:53:54.565Z,20.67
2017-04-04T00:54:23.222Z,20.61
2017-04-04T00:55:34.774Z,20.65
2017-04-04T00:56:03.228Z,20.61
2017-04-04T00:56:31.722Z,20.67
2017-04-04T00:57:00.034Z,20.6
2017-04-04T00:57:28.480Z,20.61
2017-04-04T00:57:57.010Z,20.5
2017-04-04T00:58:25.607Z,20.55
2017-04-04T00:58:54.062Z,20.55
2017-04-04T00:59:22.401Z,20.6
2017-04-04T00:59:50.866Z,20.53
2017-04-04T01:00:19.389Z,20.49
2017-04-04T01:01:30.860Z,20.49
2017-04-04T01:01:59.221Z,20.55
2017-04-04T01:02:27.732Z,20.5
2017-04-04T01:02:56.074Z,20.53
2017-04-04T01:03:24.477Z,20.48
2017-04-04T01:03:53.036Z,20.48
2017-04-04T01:04:21.903Z,20.49
2017-04-04T01:04:50.505Z,20.52
2017-04-04T01:05:18.993Z,20.5
2017-04-04T01:05:47.378Z,20.49
2017-04-04T01:06:16.005Z,20.48
2017-04-04T01:07:27.402Z,20.48
2017-04-04T01:07:55.755Z,20.37
2017-04-04T01:08:24.984Z,20.37
2017-04-04T01:08:53.157Z,20.37
2017-04-04T01:09:21.704Z,20.37
2017-04-04T01:09:50.468Z,20.34
2017-04-04T01:10:18.884Z,20.32
2017-04-04T01:10:47.427Z,20.44
2017-04-04T01:11:15.810Z,20.34
2017-04-04T01:11:44.312Z,20.46
2017-04-04T01:12:12.792Z,20.34
2017-04-04T01:13:24.237Z,20.33
2017-04-04T01:13:52.684Z,20.32
2017-04-04T01:14:21.200Z,20.32
2017-04-04T01:14:49.467Z,20.29
2017-04-04T01:15:17.868Z,20.29
2017-04-04T01:15:46.235Z,20.33
2017-04-04T01:16:15.102Z,20.26
2017-04-04T01:16:43.591Z,20.25
2017-04-04T01:17:11.921Z,20.25
2017-04-04T01:17:40.159Z,20.18
2017-04-04T01:18:08.477Z,20.23
2017-04-04T01:19:19.845Z,20.19
2017-04-04T01:19:48.280Z,20.26
2017-04-04T01:20:16.783Z,20.22
2017-04-04T01:20:45.058Z,20.18
2017-04-04T01:21:13.448Z,20.22
2017-04-04T01:21:41.933Z,20.19
2017-04-04T01:22:10.363Z,20.15
2017-04-04T01:22:38.918Z,20.25
2017-04-04T01:23:07.330Z,20.18
2017-04-04T01:23:35.816Z,20.12
2017-04-04T01:24:04.746Z,20.11
2017-04-04T01:25:16.275Z,20.18
2017-04-04T01:25:44.437Z,20.18
2017-04-04T01:26:12.763Z,20.12
2017-04-04T01:26:41.139Z,20.17
2017-04-04T01:27:09.716Z,20.04
2017-04-04T01:27:38.170Z,20.08
2017-04-04T01:28:06.771Z,20.08
2017-04-04T01:28:35.414Z,20.05
2017-04-04T01:29:03.805Z,20.14
2017-04-04T01:29:32.287Z,20.05
2017-04-04T01:30:00.804Z,20.12
2017-04-04T01:31:12.363Z,20.15
2017-04-04T01:31:40.815Z,20.08
2017-04-04T01:32:09.217Z,20.08
2017-04-04T01:32:37.560Z,20
2017-04-04T01:33:06.113Z,20.05
2017-04-04T01:33:34.487Z,20.11
2017-04-04T01:34:03.052Z,20.02
2017-04-04T01:34:31.596Z,20.12
2017-04-04T01:35:00.001Z,20.09
2017-04-04T01:35:28.487Z,20.15
2017-04-04T01:35:57.082Z,20.09
2017-04-04T01:37:08.459Z,20.05
2017-04-04T01:37:36.806Z,20.05
2017-04-04T01:38:05.335Z,20.04
2017-04-04T01:38:33.692Z,20.05
2017-04-04T01:39:02.133Z,20.04
2017-04-04T01:39:30.630Z,20.04
2017-04-04T01:39:59.039Z,20.02
2017-04-04T01:40:27.619Z,20
2017-04-04T01:40:56.030Z,20.02
2017-04-04T01:41:24.526Z,20.02
2017-04-04T01:41:52.867Z,20.02
2017-04-04T01:43:05.200Z,20
2017-04-04T01:43:33.542Z,20.02
2017-04-04T01:44:01.899Z,19.96
2017-04-04T01:44:30.143Z,19.96
2017-04-04T01:44:58.660Z,20.04
2017-04-04T01:45:27.215Z,20.02
2017-04-04T01:45:55.647Z,19.96
2017-04-04T01:46:24.011Z,20.02
2017-04-04T01:46:52.470Z,19.99
2017-04-04T01:47:20.909Z,19.94
2017-04-04T01:47:49.511Z,19.94
2017-04-04T01:49:00.905Z,20.02
2017-04-04T01:49:29.246Z,19.94
2017-04-04T01:49:57.657Z,20.02
2017-04-04T01:50:26.028Z,20.04
2017-04-04T01:50:54.583Z,20.07
2017-04-04T01:51:23.142Z,19.96
2017-04-04T01:51:51.531Z,20
2017-04-04T01:52:20.015Z,20.04
2017-04-04T01:52:48.267Z,20.04
2017-04-04T01:53:16.739Z,19.94
2017-04-04T01:53:45.352Z,20.04
2017-04-04T01:54:56.907Z,19.97
2017-04-04T01:55:25.352Z,19.99
2017-04-04T01:55:53.814Z,20.02
2017-04-04T01:56:21.986Z,19.97
2017-04-04T01:56:50.496Z,20.07
2017-04-04T01:57:19.062Z,19.93
2017-04-04T01:57:47.530Z,19.96
2017-04-04T01:58:16.040Z,19.93
2017-04-04T01:58:44.387Z,19.92
2017-04-04T01:59:12.854Z,19.92
2017-04-04T01:59:41.240Z,19.94
2017-04-04T02:00:52.578Z,20
2017-04-04T02:01:20.971Z,20.04
2017-04-04T02:01:49.435Z,19.92
2017-04-04T02:02:17.739Z,20.04
2017-04-04T02:02:45.958Z,19.99
2017-04-04T02:03:14.473Z,20
2017-04-04T02:03:42.879Z,20.04
2017-04-04T02:04:11.439Z,20.05
2017-04-04T02:04:39.875Z,20.02
2017-04-04T02:05:08.216Z,20.02
2017-04-04T02:05:36.705Z,20.04
2017-04-04T02:06:48.095Z,20
2017-04-04T02:07:16.506Z,19.96
2017-04-04T02:07:45.004Z,19.99
2017-04-04T02:08:13.327Z,20
2017-04-04T02:08:41.669Z,20.08
2017-04-04T02:09:10.097Z,19.99
2017-04-04T02:09:38.607Z,20.05
2017-04-04T02:10:06.925Z,20
2017-04-04T02:10:35.214Z,20
2017-04-04T02:11:03.587Z,20
2017-04-04T02:11:32.150Z,20.02
2017-04-04T02:12:43.562Z,20
2017-04-04T02:13:11.950Z,20.04
2017-04-04T02:13:40.235Z,20
2017-04-04T02:14:08.453Z,20
2017-04-04T02:14:36.918Z,20
2017-04-04T02:15:05.293Z,20.04
2017-04-04T02:15:33.684Z,19.96
2017-04-04T02:16:02.202Z,19.99
2017-04-04T02:16:30.529Z,19.96
2017-04-04T02:16:58.755Z,19.96
2017-04-04T02:17:27.334Z,19.93
2017-04-04T02:18:38.680Z,19.99
2017-04-04T02:19:07.001Z,19.92
2017-04-04T02:19:35.342Z,19.96
2017-04-04T02:20:03.463Z,20
2017-04-04T02:20:31.890Z,19.94
2017-04-04T02:21:00.351Z,19.93
2017-04-04T02:21:28.788Z,19.82
2017-04-04T02:21:57.327Z,19.96
2017-04-04T02:22:25.636Z,19.84
2017-04-04T02:22:54.084Z,19.9
2017-04-04T02:23:22.668Z,19.84
2017-04-04T02:24:34.187Z,19.89
2017-04-04T02:25:02.588Z,19.92
2017-04-04T02:25:30.966Z,19.9
2017-04-04T02:25:59.294Z,19.9
2017-04-04T02:26:27.671Z,19.93
2017-04-04T02:26:56.155Z,19.86
2017-04-04T02:27:24.557Z,19.92
2017-04-04T02:27:52.839Z,19.87
2017-04-04T02:28:21.141Z,19.84
2017-04-04T02:28:49.571Z,19.89
2017-04-04T02:29:18.192Z,19.84
2017-04-04T02:30:29.716Z,19.81
2017-04-04T02:30:58.093Z,19.78
2017-04-04T02:31:26.351Z,19.82
2017-04-04T02:31:54.647Z,19.79
2017-04-04T02:32:23.068Z,19.84
2017-04-04T02:32:51.440Z,19.81
2017-04-04T02:33:19.839Z,19.79
2017-04-04T02:33:48.074Z,19.86
2017-04-04T02:34:16.267Z,19.84
2017-04-04T02:34:44.488Z,19.86
2017-04-04T02:35:13.341Z,19.82
2017-04-04T02:36:24.681Z,19.89
2017-04-04T02:36:53.047Z,19.89
2017-04-04T02:37:21.395Z,19.81
2017-04-04T02:37:49.580Z,19.79
2017-04-04T02:38:17.906Z,19.77
2017-04-04T02:38:46.275Z,19.79
2017-04-04T02:39:14.742Z,19.82
2017-04-04T02:39:43.056Z,19.82
2017-04-04T02:40:11.458Z,19.89
2017-04-04T02:40:39.697Z,19.79
2017-04-04T02:41:08.163Z,19.79
2017-04-04T02:42:19.541Z,19.84
2017-04-04T02:42:47.927Z,19.82
2017-04-04T02:43:16.192Z,19.84
2017-04-04T02:43:44.698Z,19.84
2017-04-04T02:44:13.040Z,19.81
2017-04-04T02:44:41.562Z,19.87
2017-04-04T02:45:09.715Z,19.82
2017-04-04T02:45:37.931Z,19.84
2017-04-04T02:46:06.227Z,19.79
2017-04-04T02:46:34.627Z,19.84
2017-04-04T02:47:03.409Z,19.84
2017-04-04T02:48:14.765Z,19.79
2017-04-04T02:48:43.142Z,19.84
2017-04-04T02:49:11.606Z,19.81
2017-04-04T02:49:39.883Z,19.77
2017-04-04T02:50:08.283Z,19.86
2017-04-04T02:50:36.685Z,19.78
2017-04-04T02:51:05.046Z,19.81
2017-04-04T02:51:33.267Z,19.87
2017-04-04T02:52:01.668Z,19.87
2017-04-04T02:52:30.071Z,19.81
2017-04-04T02:52:58.388Z,19.79
2017-04-04T02:54:09.723Z,19.81
2017-04-04T02:54:38.090Z,19.82
2017-04-04T02:55:06.411Z,19.82
2017-04-04T02:55:34.590Z,19.72
2017-04-04T02:56:02.887Z,19.75
2017-04-04T02:56:31.245Z,19.77
2017-04-04T02:56:59.615Z,19.78
2017-04-04T02:57:27.918Z,19.77
2017-04-04T02:57:56.078Z,19.75
2017-04-04T02:58:24.457Z,19.75
2017-04-04T02:58:52.938Z,19.75
2017-04-04T03:00:04.356Z,19.68
2017-04-04T03:00:32.718Z,19.82
2017-04-04T03:01:01.244Z,19.78
2017-04-04T03:01:29.334Z,19.67
2017-04-04T03:01:57.540Z,19.71
2017-04-04T03:02:25.805Z,19.7
2017-04-04T03:02:54.150Z,19.64
2017-04-04T03:03:22.344Z,19.62
2017-04-04T03:03:50.696Z,19.75
2017-04-04T03:04:19.066Z,19.68
2017-04-04T03:04:47.554Z,19.6
2017-04-04T03:05:58.874Z,19.71
2017-04-04T03:06:27.154Z,19.75
2017-04-04T03:06:55.478Z,19.62
2017-04-04T03:07:23.594Z,19.78
2017-04-04T03:07:52.481Z,19.72
2017-04-04T03:08:20.899Z,19.74
2017-04-04T03:08:49.734Z,19.72
2017-04-04T03:09:17.947Z,19.74
2017-04-04T03:09:46.293Z,19.74
2017-04-04T03:10:14.590Z,19.72
2017-04-04T03:10:42.915Z,19.72
2017-04-04T03:11:54.337Z,19.71
2017-04-04T03:12:22.705Z,19.71
2017-04-04T03:12:51.119Z,19.72
2017-04-04T03:13:19.325Z,19.68
2017-04-04T03:13:47.662Z,19.72
2017-04-04T03:14:16.031Z,19.71
2017-04-04T03:14:44.469Z,19.68
2017-04-04T03:15:12.857Z,19.72
2017-04-04T03:15:41.202Z,19.7
2017-04-04T03:16:09.529Z,19.7
2017-04-04T03:16:37.828Z,19.71
2017-04-04T03:17:49.251Z,19.67
2017-04-04T03:18:17.427Z,19.74
2017-04-04T03:18:45.648Z,19.72
2017-04-04T03:19:13.917Z,19.74
2017-04-04T03:19:42.286Z,19.71
2017-04-04T03:20:10.550Z,19.72
2017-04-04T03:20:38.971Z,19.63
2017-04-04T03:21:07.253Z,19.62
2017-04-04T03:21:35.499Z,19.6
2017-04-04T03:22:03.874Z,19.64
2017-04-04T03:22:32.162Z,19.6
2017-04-04T03:23:43.574Z,19.64
2017-04-04T03:24:11.935Z,19.68
2017-04-04T03:24:40.348Z,19.59
2017-04-04T03:25:08.620Z,19.59
2017-04-04T03:25:36.983Z,19.62
2017-04-04T03:26:05.344Z,19.63
2017-04-04T03:26:33.769Z,19.63
2017-04-04T03:27:02.058Z,19.6
2017-04-04T03:27:30.218Z,19.64
2017-04-04T03:27:58.314Z,19.59
2017-04-04T03:28:26.705Z,19.68
2017-04-04T03:29:38.112Z,19.57
2017-04-04T03:30:06.472Z,19.62
2017-04-04T03:30:34.889Z,19.63
2017-04-04T03:31:03.070Z,19.6
2017-04-04T03:31:31.340Z,19.57
2017-04-04T03:31:59.784Z,19.6
2017-04-04T03:32:28.209Z,19.6
2017-04-04T03:32:56.584Z,19.59
2017-04-04T03:33:24.931Z,19.62
2017-04-04T03:33:53.216Z,19.59
2017-04-04T03:34:21.600Z,19.6
2017-04-04T03:35:33.049Z,19.6
2017-04-04T03:36:01.363Z,19.62
2017-04-04T03:36:29.592Z,19.56
2017-04-04T03:36:57.858Z,19.59
2017-04-04T03:37:26.131Z,19.57
2017-04-04T03:37:54.481Z,19.57
2017-04-04T03:38:22.906Z,19.59
2017-04-04T03:38:51.193Z,19.57
2017-04-04T03:39:19.452Z,19.62
2017-04-04T03:39:47.841Z,19.62
2017-04-04T03:40:16.220Z,19.52
2017-04-04T03:41:27.536Z,19.53
2017-04-04T03:41:55.899Z,19.57
2017-04-04T03:42:24.222Z,19.57
2017-04-04T03:42:52.402Z,19.59
2017-04-04T03:43:20.675Z,19.6
2017-04-04T03:43:49.127Z,19.57
2017-04-04T03:44:17.550Z,19.57
2017-04-04T03:44:45.929Z,19.57
2017-04-04T03:45:14.181Z,19.64
2017-04-04T03:45:42.561Z,19.67
2017-04-04T03:46:11.042Z,19.67
2017-04-04T03:47:22.451Z,19.59
2017-04-04T03:47:50.721Z,19.59
2017-04-04T03:48:19.043Z,19.62
2017-04-04T03:48:47.224Z,19.59
2017-04-04T03:49:15.494Z,19.6
2017-04-04T03:49:43.913Z,19.63
2017-04-04T03:50:12.333Z,19.62
2017-04-04T03:50:40.834Z,19.53
2017-04-04T03:51:09.082Z,19.52
2017-04-04T03:51:37.461Z,19.49
2017-04-04T03:52:05.843Z,19.57
2017-04-04T03:53:17.253Z,19.53
2017-04-04T03:53:45.610Z,19.52
2017-04-04T03:54:14.023Z,19.42
2017-04-04T03:54:42.204Z,19.52
2017-04-04T03:55:10.569Z,19.52
2017-04-04T03:55:38.918Z,19.5
2017-04-04T03:56:07.345Z,19.52
2017-04-04T03:56:35.719Z,19.52
2017-04-04T03:57:03.968Z,19.52
2017-04-04T03:57:32.260Z,19.54
2017-04-04T03:58:00.636Z,19.45
2017-04-04T03:59:12.040Z,19.54
2017-04-04T03:59:40.408Z,19.6
2017-04-04T04:00:08.725Z,19.5
2017-04-04T04:00:36.807Z,19.59
2017-04-04T04:01:05.079Z,19.54
2017-04-04T04:01:33.523Z,19.52
2017-04-04T04:02:01.959Z,19.47
2017-04-04T04:02:30.245Z,19.42
2017-04-04T04:02:58.494Z,19.49
2017-04-04T04:03:26.877Z,19.38
2017-04-04T04:03:55.160Z,19.44
2017-04-04T04:05:06.567Z,19.38
2017-04-04T04:05:34.830Z,19.44
2017-04-04T04:06:03.267Z,19.35
2017-04-04T04:06:31.421Z,19.38
2017-04-04T04:06:59.788Z,19.41
2017-04-04T04:07:28.232Z,19.39
2017-04-04T04:07:56.660Z,19.39
2017-04-04T04:08:24.854Z,19.44
2017-04-04T04:08:53.193Z,19.35
2017-04-04T04:09:21.924Z,19.34
2017-04-04T04:09:50.302Z,19.38
2017-04-04T04:11:01.516Z,19.31
2017-04-04T04:11:29.876Z,19.32
2017-04-04T04:11:58.198Z,19.35
2017-04-04T04:12:26.475Z,19.37
2017-04-04T04:12:54.644Z,19.37
2017-04-04T04:13:22.993Z,19.32
2017-04-04T04:13:51.236Z,19.34
2017-04-04T04:14:19.519Z,19.32
2017-04-04T04:14:47.770Z,19.3
2017-04-04T04:15:16.292Z,19.27
2017-04-04T04:15:44.671Z,19.26
2017-04-04T04:16:55.982Z,19.31
2017-04-04T04:17:24.242Z,19.27
2017-04-04T04:17:52.644Z,19.3
2017-04-04T04:18:20.916Z,19.27
2017-04-04T04:18:49.187Z,19.22
2017-04-04T04:19:17.547Z,19.22
2017-04-04T04:19:45.873Z,19.23
2017-04-04T04:20:14.152Z,19.3
2017-04-04T04:20:42.400Z,19.26
2017-04-04T04:21:10.776Z,19.2
2017-04-04T04:21:39.075Z,19.26
2017-04-04T04:22:50.382Z,19.2
2017-04-04T04:23:18.648Z,19.22
2017-04-04T04:23:47.055Z,19.2
2017-04-04T04:24:15.153Z,19.19
2017-04-04T04:24:43.424Z,19.22
2017-04-04T04:25:11.867Z,19.22
2017-04-04T04:25:40.199Z,19.27
2017-04-04T04:26:08.480Z,19.26
2017-04-04T04:26:36.640Z,19.2
2017-04-04T04:27:05.019Z,19.22
2017-04-04T04:27:33.493Z,19.19
2017-04-04T04:28:44.720Z,19.17
2017-04-04T04:29:13.076Z,19.2
2017-04-04T04:29:41.491Z,19.19
2017-04-04T04:30:09.762Z,19.26
2017-04-04T04:30:38.045Z,19.2
2017-04-04T04:31:06.302Z,19.19
2017-04-04T04:31:34.626Z,19.31
2017-04-04T04:32:02.857Z,19.22
2017-04-04T04:32:31.199Z,19.19
2017-04-04T04:33:00.136Z,19.19
2017-04-04T04:33:28.419Z,19.23
2017-04-04T04:34:39.634Z,19.19
2017-04-04T04:35:07.988Z,19.17
2017-04-04T04:35:36.291Z,19.24
2017-04-04T04:36:04.566Z,19.22
2017-04-04T04:36:32.932Z,19.2
2017-04-04T04:37:01.371Z,19.27
2017-04-04T04:37:29.707Z,19.24
2017-04-04T04:37:58.081Z,19.19
2017-04-04T04:38:26.137Z,19.23
2017-04-04T04:38:54.519Z,19.26
2017-04-04T04:39:22.887Z,19.2
2017-04-04T04:40:34.107Z,19.19
2017-04-04T04:41:02.458Z,19.22
2017-04-04T04:41:30.765Z,19.2
2017-04-04T04:41:58.856Z,19.2
2017-04-04T04:42:27.129Z,19.23
2017-04-04T04:42:55.578Z,19.23
2017-04-04T04:43:23.906Z,19.2
2017-04-04T04:43:52.277Z,19.2
2017-04-04T04:44:20.624Z,19.24
2017-04-04T04:44:48.920Z,19.26
2017-04-04T04:45:17.389Z,19.31
2017-04-04T04:46:28.799Z,19.3
2017-04-04T04:46:57.118Z,19.26
2017-04-04T04:47:25.492Z,19.23
2017-04-04T04:47:53.580Z,19.27
2017-04-04T04:48:21.941Z,19.2
2017-04-04T04:48:50.299Z,19.23
2017-04-04T04:49:18.719Z,19.31
2017-04-04T04:49:47.005Z,19.22
2017-04-04T04:50:15.350Z,19.27
2017-04-04T04:50:43.632Z,19.15
2017-04-04T04:51:11.984Z,19.27
2017-04-04T04:52:23.300Z,19.34
2017-04-04T04:52:51.657Z,19.32
2017-04-04T04:53:20.067Z,19.34
2017-04-04T04:53:48.244Z,19.26
2017-04-04T04:54:16.517Z,19.27
2017-04-04T04:54:44.870Z,19.22
2017-04-04T04:55:13.296Z,19.34
2017-04-04T04:55:41.673Z,19.24
2017-04-04T04:56:10.017Z,19.34
2017-04-04T04:56:38.393Z,19.31
2017-04-04T04:57:06.735Z,19.34
2017-04-04T04:58:18.042Z,19.31
2017-04-04T04:58:46.208Z,19.24
2017-04-04T04:59:14.606Z,19.27
2017-04-04T04:59:43.227Z,19.27
2017-04-04T05:00:11.496Z,19.26
2017-04-04T05:00:39.945Z,19.32
2017-04-04T05:01:08.086Z,19.27
2017-04-04T05:01:36.459Z,19.3
2017-04-04T05:02:04.804Z,19.27
2017-04-04T05:02:32.904Z,19.22
2017-04-04T05:03:01.089Z,19.2
2017-04-04T05:04:12.493Z,19.24
2017-04-04T05:04:40.757Z,19.19
2017-04-04T05:05:09.159Z,19.19
2017-04-04T05:05:37.244Z,19.19
2017-04-04T05:06:05.607Z,19.15
2017-04-04T05:06:34.050Z,19.24
2017-04-04T05:07:02.378Z,19.15
2017-04-04T05:07:30.662Z,19.15
2017-04-04T05:07:59.003Z,19.19
2017-04-04T05:08:27.373Z,19.17
2017-04-04T05:08:55.738Z,19.09
2017-04-04T05:10:07.131Z,19.19
2017-04-04T05:10:35.311Z,19.08
2017-04-04T05:11:03.595Z,19.08
2017-04-04T05:11:31.880Z,19.08
2017-04-04T05:12:00.108Z,19.08
2017-04-04T05:12:28.317Z,19.15
2017-04-04T05:12:56.718Z,19.07
2017-04-04T05:13:24.959Z,19.12
2017-04-04T05:13:53.321Z,19.08
2017-04-04T05:14:21.591Z,19.08
2017-04-04T05:14:49.854Z,19.12
2017-04-04T05:16:01.169Z,19.09
2017-04-04T05:16:29.501Z,19.12
2017-04-04T05:16:57.710Z,19.08
2017-04-04T05:17:25.978Z,19.01
2017-04-04T05:17:54.243Z,19
2017-04-04T05:18:22.673Z,19.01
2017-04-04T05:18:50.986Z,18.93
2017-04-04T05:19:19.352Z,19.01
2017-04-04T05:19:47.605Z,19.08
2017-04-04T05:20:15.888Z,19.05
2017-04-04T05:20:44.071Z,18.98
2017-04-04T05:21:55.385Z,19.01
2017-04-04T05:22:23.726Z,19
2017-04-04T05:22:52.042Z,18.98
2017-04-04T05:23:20.302Z,18.96
2017-04-04T05:23:48.573Z,19.01
2017-04-04T05:24:16.999Z,18.98
2017-04-04T05:24:45.306Z,19
2017-04-04T05:25:13.625Z,19
2017-04-04T05:25:41.842Z,19.07
2017-04-04T05:26:10.099Z,19
2017-04-04T05:26:38.366Z,18.94
2017-04-04T05:27:49.553Z,18.94
2017-04-04T05:28:17.808Z,18.94
2017-04-04T05:28:45.983Z,18.93
2017-04-04T05:29:14.189Z,18.98
2017-04-04T05:29:42.550Z,18.94
2017-04-04T05:30:10.883Z,18.96
2017-04-04T05:30:39.244Z,18.97
2017-04-04T05:31:07.422Z,18.93
2017-04-04T05:31:35.690Z,18.94
2017-04-04T05:32:03.944Z,18.86
2017-04-04T05:32:32.080Z,18.91
2017-04-04T05:33:43.354Z,18.94
2017-04-04T05:34:11.594Z,18.93
2017-04-04T05:34:39.937Z,18.89
2017-04-04T05:35:08.231Z,18.94
2017-04-04T05:35:36.558Z,18.96
2017-04-04T05:36:04.834Z,18.86
2017-04-04T05:36:33.185Z,18.88
2017-04-04T05:37:01.511Z,18.93
2017-04-04T05:37:29.736Z,18.93
2017-04-04T05:37:58.089Z,18.86
2017-04-04T05:38:26.302Z,18.88
2017-04-04T05:39:37.582Z,18.85
2017-04-04T05:40:05.726Z,18.91
2017-04-04T05:40:33.883Z,18.93
2017-04-04T05:41:02.173Z,18.81
2017-04-04T05:41:30.502Z,18.94
2017-04-04T05:41:58.866Z,18.82
2017-04-04T05:42:27.219Z,18.79
2017-04-04T05:42:55.440Z,18.94
2017-04-04T05:43:23.565Z,18.94
2017-04-04T05:43:51.824Z,18.82
2017-04-04T05:44:19.940Z,18.78
2017-04-04T05:45:31.215Z,18.83
2017-04-04T05:45:59.548Z,18.88
2017-04-04T05:46:27.791Z,18.85
2017-04-04T05:46:55.992Z,18.78
2017-04-04T05:47:24.319Z,18.93
2017-04-04T05:47:52.681Z,18.86
2017-04-04T05:48:20.843Z,18.79
2017-04-04T05:48:49.161Z,18.83
2017-04-04T05:49:17.472Z,18.86
2017-04-04T05:49:45.638Z,18.83
2017-04-04T05:50:13.945Z,18.85
2017-04-04T05:51:25.315Z,18.83
2017-04-04T05:51:53.459Z,18.83
2017-04-04T05:52:21.613Z,18.83
2017-04-04T05:52:49.905Z,18.78
2017-04-04T05:53:18.235Z,18.81
2017-04-04T05:53:46.505Z,18.82
2017-04-04T05:54:14.603Z,18.81
2017-04-04T05:54:42.839Z,18.78
2017-04-04T05:55:11.145Z,18.86
2017-04-04T05:55:39.520Z,18.86
2017-04-04T05:56:07.759Z,18.83
2017-04-04T05:57:19.073Z,18.81
2017-04-04T05:57:47.316Z,18.71
2017-04-04T05:58:15.686Z,18.79
2017-04-04T05:58:43.980Z,18.74
2017-04-04T05:59:12.325Z,18.85
2017-04-04T05:59:40.729Z,18.82
2017-04-04T06:00:09.101Z,18.75
2017-04-04T06:00:37.478Z,18.85
2017-04-04T06:01:05.795Z,18.83
2017-04-04T06:01:34.062Z,18.71
2017-04-04T06:02:02.284Z,18.76
2017-04-04T06:03:13.658Z,18.76
2017-04-04T06:03:41.805Z,18.71
2017-04-04T06:04:10.047Z,18.75
2017-04-04T06:04:38.249Z,18.74
2017-04-04T06:05:06.312Z,18.85
2017-04-04T06:05:34.625Z,18.71
2017-04-04T06:06:02.798Z,18.76
2017-04-04T06:06:31.118Z,18.78
2017-04-04T06:06:59.334Z,18.71
2017-04-04T06:07:27.588Z,18.71
2017-04-04T06:07:55.804Z,18.75
2017-04-04T06:09:07.178Z,18.82
2017-04-04T06:09:35.518Z,18.78
2017-04-04T06:10:03.856Z,18.82
2017-04-04T06:10:32.054Z,18.74
2017-04-04T06:11:00.287Z,18.75
2017-04-04T06:11:28.652Z,18.71
2017-04-04T06:11:57.004Z,18.76
2017-04-04T06:12:25.237Z,18.71
2017-04-04T06:12:53.451Z,18.81
2017-04-04T06:13:21.802Z,18.7
2017-04-04T06:13:50.011Z,18.7
2017-04-04T06:15:01.193Z,18.83
2017-04-04T06:15:29.429Z,18.74
2017-04-04T06:15:57.687Z,18.7
2017-04-04T06:16:25.883Z,18.68
2017-04-04T06:16:54.023Z,18.74
2017-04-04T06:17:22.195Z,18.71
2017-04-04T06:17:50.541Z,18.76
2017-04-04T06:18:18.768Z,18.74
2017-04-04T06:18:46.898Z,18.75
2017-04-04T06:19:15.157Z,18.74
2017-04-04T06:19:43.458Z,18.75
2017-04-04T06:20:54.738Z,18.82
2017-04-04T06:21:22.881Z,18.71
2017-04-04T06:21:51.216Z,18.75
2017-04-04T06:22:19.419Z,18.75
2017-04-04T06:22:47.746Z,18.78
2017-04-04T06:23:16.112Z,18.76
2017-04-04T06:23:44.462Z,18.76
2017-04-04T06:24:12.595Z,18.71
2017-04-04T06:24:40.818Z,18.76
2017-04-04T06:25:09.175Z,18.76
2017-04-04T06:25:37.478Z,18.75
2017-04-04T06:26:48.759Z,18.74
2017-04-04T06:27:16.905Z,18.78
2017-04-04T06:27:45.149Z,18.74
2017-04-04T06:28:13.441Z,18.76
2017-04-04T06:28:41.768Z,18.78
2017-04-04T06:29:10.041Z,18.76
2017-04-04T06:29:38.296Z,18.67
2017-04-04T06:30:06.618Z,18.78
2017-04-04T06:30:34.932Z,18.67
2017-04-04T06:31:03.187Z,18.7
2017-04-04T06:31:31.397Z,18.74
2017-04-04T06:32:42.710Z,18.74
2017-04-04T06:33:10.856Z,18.68
2017-04-04T06:33:39.044Z,18.78
2017-04-04T06:34:07.299Z,18.76
2017-04-04T06:34:35.440Z,18.71
2017-04-04T06:35:03.615Z,18.78
2017-04-04T06:35:31.821Z,18.75
2017-04-04T06:36:00.150Z,18.74
2017-04-04T06:36:28.446Z,18.7
2017-04-04T06:36:56.815Z,18.74
2017-04-04T06:37:24.957Z,18.66
2017-04-04T06:38:36.167Z,18.74
2017-04-04T06:39:04.491Z,18.7
2017-04-04T06:39:32.768Z,18.67
2017-04-04T06:40:00.986Z,18.64
2017-04-04T06:40:29.240Z,18.74
2017-04-04T06:40:57.457Z,18.71
2017-04-04T06:41:25.730Z,18.64
2017-04-04T06:41:54.101Z,18.61
2017-04-04T06:42:22.449Z,18.78
2017-04-04T06:42:50.833Z,18.66
2017-04-04T06:43:18.899Z,18.7
2017-04-04T06:44:30.123Z,18.63
2017-04-04T06:44:58.458Z,18.66
2017-04-04T06:45:26.728Z,18.63
2017-04-04T06:45:54.943Z,18.64
2017-04-04T06:46:23.290Z,18.78
2017-04-04T06:46:51.414Z,18.68
2017-04-04T06:47:19.782Z,18.75
2017-04-04T06:47:48.159Z,18.66
2017-04-04T06:48:16.511Z,18.7
2017-04-04T06:48:44.861Z,18.78
2017-04-04T06:49:13.243Z,18.63
2017-04-04T06:50:24.554Z,18.66
2017-04-04T06:50:52.893Z,18.75
2017-04-04T06:51:21.167Z,18.66
2017-04-04T06:51:49.470Z,18.82
2017-04-04T06:52:17.816Z,18.78
2017-04-04T06:52:46.124Z,18.75
2017-04-04T06:53:14.395Z,18.64
2017-04-04T06:53:42.765Z,18.66
2017-04-04T06:54:11.116Z,18.67
2017-04-04T06:54:39.276Z,18.66
2017-04-04T06:55:07.477Z,18.74
2017-04-04T06:56:18.692Z,18.66
2017-04-04T06:56:46.841Z,18.7
2017-04-04T06:57:15.208Z,18.6
2017-04-04T06:57:43.332Z,18.64
2017-04-04T06:58:11.677Z,18.75